sensor_id;sensor_type;location;lat;lon;timestamp;temperature;humidity
78793;SHT31;68134;51.984;5.652;2024-02-15T00:00:53;13.8;83.7
78793;SHT31;68134;51.984;5.652;2024-02-15T00:03:24;13.8;83.7
78793;SHT31;68134;51.984;5.652;2024-02-15T00:05:53;13.8;83.4
78793;SHT31;68134;51.984;5.652;2024-02-15T00:08:21;13.8;83.4
78793;SHT31;68134;51.984;5.652;2024-02-15T00:10:51;13.8;83.3
78793;SHT31;68134;51.984;5.652;2024-02-15T00:13:20;13.8;83.4
78793;SHT31;68134;51.984;5.652;2024-02-15T00:15:49;13.8;83.3
78793;SHT31;68134;51.984;5.652;2024-02-15T00:18:20;13.8;83.1
78793;SHT31;68134;51.984;5.652;2024-02-15T00:20:50;13.8;83.2
78793;SHT31;68134;51.984;5.652;2024-02-15T00:23:18;13.8;83.2
78793;SHT31;68134;51.984;5.652;2024-02-15T00:25:49;13.8;83.2
78793;SHT31;68134;51.984;5.652;2024-02-15T00:28:17;13.9;83.1
78793;SHT31;68134;51.984;5.652;2024-02-15T00:30:46;13.9;83.0
78793;SHT31;68134;51.984;5.652;2024-02-15T00:33:15;13.9;83.1
78793;SHT31;68134;51.984;5.652;2024-02-15T00:35:43;13.9;83.2
78793;SHT31;68134;51.984;5.652;2024-02-15T00:38:12;13.9;83.2
78793;SHT31;68134;51.984;5.652;2024-02-15T00:40:40;13.9;83.2
78793;SHT31;68134;51.984;5.652;2024-02-15T00:43:09;13.9;83.1
78793;SHT31;68134;51.984;5.652;2024-02-15T00:45:37;13.9;83.2
78793;SHT31;68134;51.984;5.652;2024-02-15T00:48:08;13.9;83.2
78793;SHT31;68134;51.984;5.652;2024-02-15T00:50:37;13.9;83.2
78793;SHT31;68134;51.984;5.652;2024-02-15T00:53:05;13.9;83.1
78793;SHT31;68134;51.984;5.652;2024-02-15T00:55:34;13.9;83.1
78793;SHT31;68134;51.984;5.652;2024-02-15T00:58:03;13.9;83.1
78793;SHT31;68134;51.984;5.652;2024-02-15T01:00:31;13.9;83.1
78793;SHT31;68134;51.984;5.652;2024-02-15T01:03:02;13.9;83.1
78793;SHT31;68134;51.984;5.652;2024-02-15T01:05:30;13.9;83.1
78793;SHT31;68134;51.984;5.652;2024-02-15T01:08:02;13.8;83.3
78793;SHT31;68134;51.984;5.652;2024-02-15T01:10:31;13.8;83.4
78793;SHT31;68134;51.984;5.652;2024-02-15T01:13:00;13.8;83.3
78793;SHT31;68134;51.984;5.652;2024-02-15T01:15:29;13.8;83.4
78793;SHT31;68134;51.984;5.652;2024-02-15T01:17:59;13.8;83.4
78793;SHT31;68134;51.984;5.652;2024-02-15T01:20:28;13.8;83.3
78793;SHT31;68134;51.984;5.652;2024-02-15T01:22:57;13.8;83.3
78793;SHT31;68134;51.984;5.652;2024-02-15T01:25:25;13.8;83.5
78793;SHT31;68134;51.984;5.652;2024-02-15T01:27:55;13.8;83.4
78793;SHT31;68134;51.984;5.652;2024-02-15T01:30:23;13.8;83.5
78793;SHT31;68134;51.984;5.652;2024-02-15T01:32:52;13.8;83.4
78793;SHT31;68134;51.984;5.652;2024-02-15T01:35:20;13.8;83.4
78793;SHT31;68134;51.984;5.652;2024-02-15T01:37:51;13.8;83.3
78793;SHT31;68134;51.984;5.652;2024-02-15T01:40:19;13.8;83.4
78793;SHT31;68134;51.984;5.652;2024-02-15T01:42:48;13.7;83.5
78793;SHT31;68134;51.984;5.652;2024-02-15T01:45:17;13.7;83.6
78793;SHT31;68134;51.984;5.652;2024-02-15T01:47:47;13.7;83.6
78793;SHT31;68134;51.984;5.652;2024-02-15T01:50:18;13.7;83.7
78793;SHT31;68134;51.984;5.652;2024-02-15T01:52:51;13.7;83.7
78793;SHT31;68134;51.984;5.652;2024-02-15T01:55:21;13.7;83.7
78793;SHT31;68134;51.984;5.652;2024-02-15T01:57:50;13.7;83.6
78793;SHT31;68134;51.984;5.652;2024-02-15T02:00:19;13.7;83.6
78793;SHT31;68134;51.984;5.652;2024-02-15T02:02:48;13.7;83.6
78793;SHT31;68134;51.984;5.652;2024-02-15T02:05:17;13.7;83.5
78793;SHT31;68134;51.984;5.652;2024-02-15T02:07:46;13.7;83.6
78793;SHT31;68134;51.984;5.652;2024-02-15T02:10:17;13.7;83.6
78793;SHT31;68134;51.984;5.652;2024-02-15T02:12:46;13.7;83.5
78793;SHT31;68134;51.984;5.652;2024-02-15T02:15:16;13.8;83.5
78793;SHT31;68134;51.984;5.652;2024-02-15T02:17:50;13.8;83.3
78793;SHT31;68134;51.984;5.652;2024-02-15T02:20:19;13.8;83.3
78793;SHT31;68134;51.984;5.652;2024-02-15T02:22:50;13.8;83.3
78793;SHT31;68134;51.984;5.652;2024-02-15T02:25:23;13.8;83.3
78793;SHT31;68134;51.984;5.652;2024-02-15T02:27:55;13.8;83.1
78793;SHT31;68134;51.984;5.652;2024-02-15T02:30:24;13.8;83.2
78793;SHT31;68134;51.984;5.652;2024-02-15T02:32:56;13.8;83.1
78793;SHT31;68134;51.984;5.652;2024-02-15T02:35:27;13.8;83.0
78793;SHT31;68134;51.984;5.652;2024-02-15T02:37:57;13.8;83.0
78793;SHT31;68134;51.984;5.652;2024-02-15T02:40:25;13.8;82.8
78793;SHT31;68134;51.984;5.652;2024-02-15T02:42:56;13.8;82.7
78793;SHT31;68134;51.984;5.652;2024-02-15T02:45:26;13.8;82.7
78793;SHT31;68134;51.984;5.652;2024-02-15T02:47:56;13.8;82.6
78793;SHT31;68134;51.984;5.652;2024-02-15T02:50:26;13.8;82.5
78793;SHT31;68134;51.984;5.652;2024-02-15T02:52:54;13.8;82.5
78793;SHT31;68134;51.984;5.652;2024-02-15T02:55:23;13.7;82.5
78793;SHT31;68134;51.984;5.652;2024-02-15T02:57:55;13.7;82.6
78793;SHT31;68134;51.984;5.652;2024-02-15T03:00:24;13.7;82.6
78793;SHT31;68134;51.984;5.652;2024-02-15T03:02:53;13.7;82.6
78793;SHT31;68134;51.984;5.652;2024-02-15T03:05:23;13.7;82.5
78793;SHT31;68134;51.984;5.652;2024-02-15T03:07:52;13.7;82.6
78793;SHT31;68134;51.984;5.652;2024-02-15T03:10:21;13.7;82.7
78793;SHT31;68134;51.984;5.652;2024-02-15T03:12:51;13.7;82.7
78793;SHT31;68134;51.984;5.652;2024-02-15T03:15:21;13.7;82.8
78793;SHT31;68134;51.984;5.652;2024-02-15T03:17:50;13.7;82.9
78793;SHT31;68134;51.984;5.652;2024-02-15T03:20:19;13.7;82.8
78793;SHT31;68134;51.984;5.652;2024-02-15T03:22:54;13.7;82.7
78793;SHT31;68134;51.984;5.652;2024-02-15T03:25:25;13.7;82.7
78793;SHT31;68134;51.984;5.652;2024-02-15T03:27:56;13.6;82.6
78793;SHT31;68134;51.984;5.652;2024-02-15T03:30:26;13.7;82.6
78793;SHT31;68134;51.984;5.652;2024-02-15T03:32:55;13.7;82.7
78793;SHT31;68134;51.984;5.652;2024-02-15T03:35:27;13.7;82.5
78793;SHT31;68134;51.984;5.652;2024-02-15T03:37:58;13.7;82.5
78793;SHT31;68134;51.984;5.652;2024-02-15T03:40:27;13.7;82.4
78793;SHT31;68134;51.984;5.652;2024-02-15T03:42:56;13.7;82.3
78793;SHT31;68134;51.984;5.652;2024-02-15T03:45:25;13.7;82.4
78793;SHT31;68134;51.984;5.652;2024-02-15T03:47:54;13.7;82.4
78793;SHT31;68134;51.984;5.652;2024-02-15T03:50:23;13.7;82.3
78793;SHT31;68134;51.984;5.652;2024-02-15T03:52:52;13.7;82.0
78793;SHT31;68134;51.984;5.652;2024-02-15T03:55:23;13.7;81.8
78793;SHT31;68134;51.984;5.652;2024-02-15T03:57:51;13.7;82.0
78793;SHT31;68134;51.984;5.652;2024-02-15T04:00:22;13.7;82.0
78793;SHT31;68134;51.984;5.652;2024-02-15T04:02:51;13.7;81.8
78793;SHT31;68134;51.984;5.652;2024-02-15T04:05:20;13.7;81.9
78793;SHT31;68134;51.984;5.652;2024-02-15T04:07:49;13.7;81.8
78793;SHT31;68134;51.984;5.652;2024-02-15T04:10:19;13.7;81.8
78793;SHT31;68134;51.984;5.652;2024-02-15T04:12:47;13.6;82.0
78793;SHT31;68134;51.984;5.652;2024-02-15T04:15:16;13.6;82.1
78793;SHT31;68134;51.984;5.652;2024-02-15T04:17:45;13.6;82.0
78793;SHT31;68134;51.984;5.652;2024-02-15T04:20:13;13.6;82.2
78793;SHT31;68134;51.984;5.652;2024-02-15T04:22:44;13.6;82.2
78793;SHT31;68134;51.984;5.652;2024-02-15T04:25:13;13.6;82.3
78793;SHT31;68134;51.984;5.652;2024-02-15T04:27:44;13.6;82.3
78793;SHT31;68134;51.984;5.652;2024-02-15T04:30:15;13.6;82.4
78793;SHT31;68134;51.984;5.652;2024-02-15T04:32:44;13.6;82.3
78793;SHT31;68134;51.984;5.652;2024-02-15T04:35:13;13.6;82.4
78793;SHT31;68134;51.984;5.652;2024-02-15T04:37:42;13.6;82.3
78793;SHT31;68134;51.984;5.652;2024-02-15T04:40:11;13.6;82.4
78793;SHT31;68134;51.984;5.652;2024-02-15T04:42:40;13.6;82.4
78793;SHT31;68134;51.984;5.652;2024-02-15T04:45:11;13.6;82.5
78793;SHT31;68134;51.984;5.652;2024-02-15T04:47:42;13.6;82.5
78793;SHT31;68134;51.984;5.652;2024-02-15T04:50:11;13.6;82.6
78793;SHT31;68134;51.984;5.652;2024-02-15T04:52:41;13.5;82.7
78793;SHT31;68134;51.984;5.652;2024-02-15T04:55:12;13.5;82.8
78793;SHT31;68134;51.984;5.652;2024-02-15T04:57:42;13.5;82.9
78793;SHT31;68134;51.984;5.652;2024-02-15T05:00:14;13.5;83.2
78793;SHT31;68134;51.984;5.652;2024-02-15T05:02:43;13.5;83.4
78793;SHT31;68134;51.984;5.652;2024-02-15T05:05:14;13.4;83.5
78793;SHT31;68134;51.984;5.652;2024-02-15T05:07:43;13.4;83.7
78793;SHT31;68134;51.984;5.652;2024-02-15T05:10:15;13.4;83.8
78793;SHT31;68134;51.984;5.652;2024-02-15T05:12:44;13.4;83.9
78793;SHT31;68134;51.984;5.652;2024-02-15T05:15:15;13.4;84.0
78793;SHT31;68134;51.984;5.652;2024-02-15T05:17:44;13.4;84.2
78793;SHT31;68134;51.984;5.652;2024-02-15T05:20:12;13.4;84.2
78793;SHT31;68134;51.984;5.652;2024-02-15T05:22:41;13.4;84.3
78793;SHT31;68134;51.984;5.652;2024-02-15T05:25:12;13.4;84.5
78793;SHT31;68134;51.984;5.652;2024-02-15T05:27:44;13.3;84.5
78793;SHT31;68134;51.984;5.652;2024-02-15T05:30:14;13.3;84.7
78793;SHT31;68134;51.984;5.652;2024-02-15T05:32:42;13.3;84.8
78793;SHT31;68134;51.984;5.652;2024-02-15T05:35:12;13.3;84.9
78793;SHT31;68134;51.984;5.652;2024-02-15T05:37:41;13.3;84.9
78793;SHT31;68134;51.984;5.652;2024-02-15T05:40:10;13.3;84.9
78793;SHT31;68134;51.984;5.652;2024-02-15T05:42:42;13.3;85.1
78793;SHT31;68134;51.984;5.652;2024-02-15T05:45:31;13.3;85.0
78793;SHT31;68134;51.984;5.652;2024-02-15T05:48:06;13.3;85.0
78793;SHT31;68134;51.984;5.652;2024-02-15T05:50:35;13.3;85.0
78793;SHT31;68134;51.984;5.652;2024-02-15T05:53:04;13.3;85.1
78793;SHT31;68134;51.984;5.652;2024-02-15T05:55:34;13.3;85.1
78793;SHT31;68134;51.984;5.652;2024-02-15T05:58:06;13.3;85.1
78793;SHT31;68134;51.984;5.652;2024-02-15T06:00:37;13.3;85.1
78793;SHT31;68134;51.984;5.652;2024-02-15T06:03:07;13.3;85.3
78793;SHT31;68134;51.984;5.652;2024-02-15T06:05:35;13.3;85.3
78793;SHT31;68134;51.984;5.652;2024-02-15T06:08:05;13.3;85.3
78793;SHT31;68134;51.984;5.652;2024-02-15T06:10:34;13.3;85.4
78793;SHT31;68134;51.984;5.652;2024-02-15T06:13:05;13.3;85.4
78793;SHT31;68134;51.984;5.652;2024-02-15T06:15:35;13.3;85.4
78793;SHT31;68134;51.984;5.652;2024-02-15T06:18:04;13.3;85.4
78793;SHT31;68134;51.984;5.652;2024-02-15T06:20:36;13.3;85.3
78793;SHT31;68134;51.984;5.652;2024-02-15T06:23:06;13.3;85.3
78793;SHT31;68134;51.984;5.652;2024-02-15T06:25:35;13.4;85.2
78793;SHT31;68134;51.984;5.652;2024-02-15T06:28:04;13.4;85.1
78793;SHT31;68134;51.984;5.652;2024-02-15T06:30:38;13.4;85.0
78793;SHT31;68134;51.984;5.652;2024-02-15T06:33:23;13.4;84.9
78793;SHT31;68134;51.984;5.652;2024-02-15T06:36:10;13.4;84.9
78793;SHT31;68134;51.984;5.652;2024-02-15T06:38:55;13.4;84.8
78793;SHT31;68134;51.984;5.652;2024-02-15T06:41:40;13.4;84.7
78793;SHT31;68134;51.984;5.652;2024-02-15T06:44:08;13.4;84.8
78793;SHT31;68134;51.984;5.652;2024-02-15T06:46:38;13.4;84.8
78793;SHT31;68134;51.984;5.652;2024-02-15T06:49:09;13.4;84.8
78793;SHT31;68134;51.984;5.652;2024-02-15T06:51:38;13.4;84.8
78793;SHT31;68134;51.984;5.652;2024-02-15T06:54:06;13.4;84.8
78793;SHT31;68134;51.984;5.652;2024-02-15T06:56:37;13.4;84.8
78793;SHT31;68134;51.984;5.652;2024-02-15T06:59:06;13.4;84.9
78793;SHT31;68134;51.984;5.652;2024-02-15T07:01:35;13.4;84.8
78793;SHT31;68134;51.984;5.652;2024-02-15T07:04:04;13.4;84.9
78793;SHT31;68134;51.984;5.652;2024-02-15T07:06:33;13.4;84.9
78793;SHT31;68134;51.984;5.652;2024-02-15T07:09:02;13.4;84.8
78793;SHT31;68134;51.984;5.652;2024-02-15T07:11:31;13.4;84.8
78793;SHT31;68134;51.984;5.652;2024-02-15T07:14:01;13.5;84.8
78793;SHT31;68134;51.984;5.652;2024-02-15T07:16:31;13.5;84.8
78793;SHT31;68134;51.984;5.652;2024-02-15T07:19:00;13.5;84.7
78793;SHT31;68134;51.984;5.652;2024-02-15T07:21:29;13.5;84.7
78793;SHT31;68134;51.984;5.652;2024-02-15T07:24:00;13.5;84.6
78793;SHT31;68134;51.984;5.652;2024-02-15T07:26:28;13.5;84.7
78793;SHT31;68134;51.984;5.652;2024-02-15T07:28:57;13.5;84.7
78793;SHT31;68134;51.984;5.652;2024-02-15T07:31:29;13.4;84.8
78793;SHT31;68134;51.984;5.652;2024-02-15T07:33:58;13.5;84.8
78793;SHT31;68134;51.984;5.652;2024-02-15T07:36:27;13.5;84.8
78793;SHT31;68134;51.984;5.652;2024-02-15T07:38:56;13.5;84.8
78793;SHT31;68134;51.984;5.652;2024-02-15T07:41:27;13.5;84.7
78793;SHT31;68134;51.984;5.652;2024-02-15T07:43:57;13.5;84.8
78793;SHT31;68134;51.984;5.652;2024-02-15T07:46:27;13.5;84.8
78793;SHT31;68134;51.984;5.652;2024-02-15T07:48:56;13.4;84.9
78793;SHT31;68134;51.984;5.652;2024-02-15T07:51:24;13.4;85.1
78793;SHT31;68134;51.984;5.652;2024-02-15T07:53:54;13.4;85.3
78793;SHT31;68134;51.984;5.652;2024-02-15T07:56:22;13.4;85.4
78793;SHT31;68134;51.984;5.652;2024-02-15T07:58:51;13.4;85.6
78793;SHT31;68134;51.984;5.652;2024-02-15T08:01:20;13.3;85.7
78793;SHT31;68134;51.984;5.652;2024-02-15T08:03:51;13.3;85.9
78793;SHT31;68134;51.984;5.652;2024-02-15T08:06:20;13.3;86.1
78793;SHT31;68134;51.984;5.652;2024-02-15T08:08:51;13.3;86.2
78793;SHT31;68134;51.984;5.652;2024-02-15T08:11:20;13.3;86.1
78793;SHT31;68134;51.984;5.652;2024-02-15T08:13:51;13.4;86.1
78793;SHT31;68134;51.984;5.652;2024-02-15T08:16:21;13.4;86.1
78793;SHT31;68134;51.984;5.652;2024-02-15T08:18:50;13.4;86.2
78793;SHT31;68134;51.984;5.652;2024-02-15T08:21:25;13.4;86.3
78793;SHT31;68134;51.984;5.652;2024-02-15T08:23:55;13.4;86.2
78793;SHT31;68134;51.984;5.652;2024-02-15T08:26:25;13.4;86.1
78793;SHT31;68134;51.984;5.652;2024-02-15T08:28:55;13.5;86.0
78793;SHT31;68134;51.984;5.652;2024-02-15T08:31:24;13.5;85.9
78793;SHT31;68134;51.984;5.652;2024-02-15T08:33:52;13.5;86.0
78793;SHT31;68134;51.984;5.652;2024-02-15T08:36:21;13.5;86.0
78793;SHT31;68134;51.984;5.652;2024-02-15T08:38:49;13.6;85.9
78793;SHT31;68134;51.984;5.652;2024-02-15T08:41:19;13.6;85.7
78793;SHT31;68134;51.984;5.652;2024-02-15T08:43:52;13.6;85.6
78793;SHT31;68134;51.984;5.652;2024-02-15T08:46:25;13.6;85.4
78793;SHT31;68134;51.984;5.652;2024-02-15T08:48:53;13.6;85.3
78793;SHT31;68134;51.984;5.652;2024-02-15T08:51:22;13.6;85.4
78793;SHT31;68134;51.984;5.652;2024-02-15T08:53:51;13.6;85.4
78793;SHT31;68134;51.984;5.652;2024-02-15T08:56:20;13.6;85.5
78793;SHT31;68134;51.984;5.652;2024-02-15T08:58:49;13.6;85.6
78793;SHT31;68134;51.984;5.652;2024-02-15T09:01:18;13.6;85.6
78793;SHT31;68134;51.984;5.652;2024-02-15T09:03:46;13.6;85.7
78793;SHT31;68134;51.984;5.652;2024-02-15T09:06:15;13.6;85.7
78793;SHT31;68134;51.984;5.652;2024-02-15T09:08:44;13.6;85.7
78793;SHT31;68134;51.984;5.652;2024-02-15T09:11:12;13.6;85.6
78793;SHT31;68134;51.984;5.652;2024-02-15T09:13:41;13.6;85.6
78793;SHT31;68134;51.984;5.652;2024-02-15T09:16:09;13.6;85.7
78793;SHT31;68134;51.984;5.652;2024-02-15T09:18:38;13.6;85.7
78793;SHT31;68134;51.984;5.652;2024-02-15T09:21:11;13.6;85.9
78793;SHT31;68134;51.984;5.652;2024-02-15T09:23:40;13.6;86.0
78793;SHT31;68134;51.984;5.652;2024-02-15T09:26:09;13.6;86.2
78793;SHT31;68134;51.984;5.652;2024-02-15T09:28:39;13.6;86.0
78793;SHT31;68134;51.984;5.652;2024-02-15T09:31:08;13.6;86.1
78793;SHT31;68134;51.984;5.652;2024-02-15T09:33:38;13.6;86.0
78793;SHT31;68134;51.984;5.652;2024-02-15T09:36:07;13.6;86.2
78793;SHT31;68134;51.984;5.652;2024-02-15T09:38:35;13.6;86.1
78793;SHT31;68134;51.984;5.652;2024-02-15T09:41:04;13.6;86.2
78793;SHT31;68134;51.984;5.652;2024-02-15T09:43:34;13.6;86.0
78793;SHT31;68134;51.984;5.652;2024-02-15T09:46:03;13.6;86.0
78793;SHT31;68134;51.984;5.652;2024-02-15T09:48:34;13.6;85.9
78793;SHT31;68134;51.984;5.652;2024-02-15T09:51:04;13.6;85.9
78793;SHT31;68134;51.984;5.652;2024-02-15T09:53:35;13.6;86.0
78793;SHT31;68134;51.984;5.652;2024-02-15T09:56:04;13.6;85.9
78793;SHT31;68134;51.984;5.652;2024-02-15T09:58:34;13.6;85.7
78793;SHT31;68134;51.984;5.652;2024-02-15T10:01:04;13.6;85.8
78793;SHT31;68134;51.984;5.652;2024-02-15T10:03:37;13.6;85.2
78793;SHT31;68134;51.984;5.652;2024-02-15T10:06:07;13.6;85.3
78793;SHT31;68134;51.984;5.652;2024-02-15T10:08:37;13.6;85.3
78793;SHT31;68134;51.984;5.652;2024-02-15T10:11:10;13.6;85.2
78793;SHT31;68134;51.984;5.652;2024-02-15T10:13:39;13.6;85.2
78793;SHT31;68134;51.984;5.652;2024-02-15T10:16:18;13.6;85.1
78793;SHT31;68134;51.984;5.652;2024-02-15T10:18:51;13.6;85.0
78793;SHT31;68134;51.984;5.652;2024-02-15T10:21:28;13.6;84.8
78793;SHT31;68134;51.984;5.652;2024-02-15T10:24:09;13.6;84.8
78793;SHT31;68134;51.984;5.652;2024-02-15T10:26:39;13.6;84.6
78793;SHT31;68134;51.984;5.652;2024-02-15T10:29:09;13.6;84.8
78793;SHT31;68134;51.984;5.652;2024-02-15T10:31:40;13.6;85.2
78793;SHT31;68134;51.984;5.652;2024-02-15T10:34:14;13.6;84.9
78793;SHT31;68134;51.984;5.652;2024-02-15T10:36:45;13.7;84.9
78793;SHT31;68134;51.984;5.652;2024-02-15T10:39:15;13.7;84.9
78793;SHT31;68134;51.984;5.652;2024-02-15T10:41:47;13.7;85.1
78793;SHT31;68134;51.984;5.652;2024-02-15T10:44:18;13.8;84.7
78793;SHT31;68134;51.984;5.652;2024-02-15T10:46:51;13.8;84.9
78793;SHT31;68134;51.984;5.652;2024-02-15T10:49:21;13.8;84.8
78793;SHT31;68134;51.984;5.652;2024-02-15T10:51:56;13.8;84.7
78793;SHT31;68134;51.984;5.652;2024-02-15T10:54:46;13.8;84.7
78793;SHT31;68134;51.984;5.652;2024-02-15T10:57:20;13.9;84.2
78793;SHT31;68134;51.984;5.652;2024-02-15T10:59:54;13.9;84.5
78793;SHT31;68134;51.984;5.652;2024-02-15T11:02:27;13.9;84.5
78793;SHT31;68134;51.984;5.652;2024-02-15T11:05:01;13.9;83.9
78793;SHT31;68134;51.984;5.652;2024-02-15T11:07:31;14.0;83.7
78793;SHT31;68134;51.984;5.652;2024-02-15T11:10:01;14.0;83.5
78793;SHT31;68134;51.984;5.652;2024-02-15T11:12:32;14.0;83.5
78793;SHT31;68134;51.984;5.652;2024-02-15T11:15:01;14.0;83.9
78793;SHT31;68134;51.984;5.652;2024-02-15T11:17:49;14.0;84.1
78793;SHT31;68134;51.984;5.652;2024-02-15T11:20:48;14.0;83.6
78793;SHT31;68134;51.984;5.652;2024-02-15T11:23:26;14.0;83.8
78793;SHT31;68134;51.984;5.652;2024-02-15T11:25:57;14.1;83.6
78793;SHT31;68134;51.984;5.652;2024-02-15T11:28:38;14.1;83.5
78793;SHT31;68134;51.984;5.652;2024-02-15T11:31:09;14.1;83.8
78793;SHT31;68134;51.984;5.652;2024-02-15T11:33:38;14.1;83.4
78793;SHT31;68134;51.984;5.652;2024-02-15T11:36:09;14.2;83.8
78793;SHT31;68134;51.984;5.652;2024-02-15T11:38:39;14.2;84.0
78793;SHT31;68134;51.984;5.652;2024-02-15T11:41:10;14.3;83.7
78793;SHT31;68134;51.984;5.652;2024-02-15T11:43:54;14.3;83.5
78793;SHT31;68134;51.984;5.652;2024-02-15T11:46:27;14.3;83.2
78793;SHT31;68134;51.984;5.652;2024-02-15T11:49:00;14.4;83.5
78793;SHT31;68134;51.984;5.652;2024-02-15T11:51:34;14.4;82.8
78793;SHT31;68134;51.984;5.652;2024-02-15T11:54:10;14.4;82.7
78793;SHT31;68134;51.984;5.652;2024-02-15T11:56:57;14.4;82.8
78793;SHT31;68134;51.984;5.652;2024-02-15T11:59:40;14.5;82.7
78793;SHT31;68134;51.984;5.652;2024-02-15T12:02:16;14.5;82.3
78793;SHT31;68134;51.984;5.652;2024-02-15T12:05:03;14.5;82.1
78793;SHT31;68134;51.984;5.652;2024-02-15T12:09:39;14.6;82.6
78793;SHT31;68134;51.984;5.652;2024-02-15T12:12:24;14.6;81.8
78793;SHT31;68134;51.984;5.652;2024-02-15T12:15:09;14.7;81.8
78793;SHT31;68134;51.984;5.652;2024-02-15T12:17:54;14.7;80.7
78793;SHT31;68134;51.984;5.652;2024-02-15T12:20:39;14.8;81.2
78793;SHT31;68134;51.984;5.652;2024-02-15T12:23:07;14.8;80.8
78793;SHT31;68134;51.984;5.652;2024-02-15T12:25:39;14.8;81.1
78793;SHT31;68134;51.984;5.652;2024-02-15T12:28:10;14.9;81.9
78793;SHT31;68134;51.984;5.652;2024-02-15T12:30:42;14.9;81.3
78793;SHT31;68134;51.984;5.652;2024-02-15T12:33:12;15.0;81.6
78793;SHT31;68134;51.984;5.652;2024-02-15T12:35:46;15.1;80.2
78793;SHT31;68134;51.984;5.652;2024-02-15T12:38:16;15.2;80.7
78793;SHT31;68134;51.984;5.652;2024-02-15T12:40:45;15.2;80.1
78793;SHT31;68134;51.984;5.652;2024-02-15T12:43:15;15.3;79.6
78793;SHT31;68134;51.984;5.652;2024-02-15T12:45:44;15.4;79.2
78793;SHT31;68134;51.984;5.652;2024-02-15T12:48:12;15.4;78.8
78793;SHT31;68134;51.984;5.652;2024-02-15T12:50:43;15.5;79.4
78793;SHT31;68134;51.984;5.652;2024-02-15T12:53:12;15.5;79.2
78793;SHT31;68134;51.984;5.652;2024-02-15T12:55:41;15.6;79.4
78793;SHT31;68134;51.984;5.652;2024-02-15T12:58:14;15.7;78.6
78793;SHT31;68134;51.984;5.652;2024-02-15T13:00:45;15.7;77.0
78793;SHT31;68134;51.984;5.652;2024-02-15T13:03:15;15.8;77.0
78793;SHT31;68134;51.984;5.652;2024-02-15T13:05:44;15.8;78.2
78793;SHT31;68134;51.984;5.652;2024-02-15T13:08:15;15.8;77.3
78793;SHT31;68134;51.984;5.652;2024-02-15T13:10:45;15.9;75.9
78793;SHT31;68134;51.984;5.652;2024-02-15T13:13:13;15.9;76.6
78793;SHT31;68134;51.984;5.652;2024-02-15T13:15:42;15.9;75.3
78793;SHT31;68134;51.984;5.652;2024-02-15T13:18:11;16.0;75.8
78793;SHT31;68134;51.984;5.652;2024-02-15T13:20:40;16.0;76.1
78793;SHT31;68134;51.984;5.652;2024-02-15T13:23:10;16.0;75.5
78793;SHT31;68134;51.984;5.652;2024-02-15T13:25:48;16.0;74.1
78793;SHT31;68134;51.984;5.652;2024-02-15T13:28:18;16.0;74.9
78793;SHT31;68134;51.984;5.652;2024-02-15T13:30:47;16.0;76.6
78793;SHT31;68134;51.984;5.652;2024-02-15T13:33:18;16.1;74.6
78793;SHT31;68134;51.984;5.652;2024-02-15T13:35:46;16.1;75.2
78793;SHT31;68134;51.984;5.652;2024-02-15T13:38:17;16.1;75.5
78793;SHT31;68134;51.984;5.652;2024-02-15T13:40:50;16.2;75.1
78793;SHT31;68134;51.984;5.652;2024-02-15T13:43:21;16.2;75.2
78793;SHT31;68134;51.984;5.652;2024-02-15T13:45:50;16.2;74.5
78793;SHT31;68134;51.984;5.652;2024-02-15T13:48:21;16.2;74.5
78793;SHT31;68134;51.984;5.652;2024-02-15T13:50:51;16.2;75.6
78793;SHT31;68134;51.984;5.652;2024-02-15T13:53:22;16.2;74.2
78793;SHT31;68134;51.984;5.652;2024-02-15T13:55:51;16.3;74.1
78793;SHT31;68134;51.984;5.652;2024-02-15T13:58:20;16.3;73.3
78793;SHT31;68134;51.984;5.652;2024-02-15T14:00:51;16.3;74.7
78793;SHT31;68134;51.984;5.652;2024-02-15T14:03:20;16.4;74.9
78793;SHT31;68134;51.984;5.652;2024-02-15T14:05:48;16.5;73.7
78793;SHT31;68134;51.984;5.652;2024-02-15T14:08:17;16.6;74.2
78793;SHT31;68134;51.984;5.652;2024-02-15T14:10:46;16.8;74.1
78793;SHT31;68134;51.984;5.652;2024-02-15T14:13:15;16.9;73.2
78793;SHT31;68134;51.984;5.652;2024-02-15T14:15:44;17.1;71.2
78793;SHT31;68134;51.984;5.652;2024-02-15T14:18:13;17.2;70.4
78793;SHT31;68134;51.984;5.652;2024-02-15T14:20:44;17.3;70.0
78793;SHT31;68134;51.984;5.652;2024-02-15T14:23:15;17.4;69.9
78793;SHT31;68134;51.984;5.652;2024-02-15T14:25:44;17.4;69.2
78793;SHT31;68134;51.984;5.652;2024-02-15T14:28:13;17.5;69.4
78793;SHT31;68134;51.984;5.652;2024-02-15T14:30:41;17.4;68.4
78793;SHT31;68134;51.984;5.652;2024-02-15T14:33:26;17.4;69.5
78793;SHT31;68134;51.984;5.652;2024-02-15T14:35:55;17.4;69.2
78793;SHT31;68134;51.984;5.652;2024-02-15T14:38:25;17.4;69.2
78793;SHT31;68134;51.984;5.652;2024-02-15T14:40:55;17.3;69.2
78793;SHT31;68134;51.984;5.652;2024-02-15T14:43:26;17.3;69.8
78793;SHT31;68134;51.984;5.652;2024-02-15T14:45:55;17.3;69.8
78793;SHT31;68134;51.984;5.652;2024-02-15T14:48:24;17.3;70.8
78793;SHT31;68134;51.984;5.652;2024-02-15T14:50:53;17.3;70.8
78793;SHT31;68134;51.984;5.652;2024-02-15T14:53:22;17.2;70.1
78793;SHT31;68134;51.984;5.652;2024-02-15T14:55:50;17.2;70.4
78793;SHT31;68134;51.984;5.652;2024-02-15T14:58:20;17.2;70.1
78793;SHT31;68134;51.984;5.652;2024-02-15T15:00:49;17.2;69.7
78793;SHT31;68134;51.984;5.652;2024-02-15T15:03:19;17.1;70.8
78793;SHT31;68134;51.984;5.652;2024-02-15T15:05:48;17.1;70.6
78793;SHT31;68134;51.984;5.652;2024-02-15T15:08:33;17.1;70.9
78793;SHT31;68134;51.984;5.652;2024-02-15T15:11:18;17.1;70.2
78793;SHT31;68134;51.984;5.652;2024-02-15T15:14:02;17.0;69.7
78793;SHT31;68134;51.984;5.652;2024-02-15T15:16:33;17.0;70.4
78793;SHT31;68134;51.984;5.652;2024-02-15T15:19:01;17.0;69.8
78793;SHT31;68134;51.984;5.652;2024-02-15T15:21:30;17.0;70.8
78793;SHT31;68134;51.984;5.652;2024-02-15T15:23:59;16.9;70.6
78793;SHT31;68134;51.984;5.652;2024-02-15T15:26:27;16.9;70.7
78793;SHT31;68134;51.984;5.652;2024-02-15T15:28:57;16.9;71.7
78793;SHT31;68134;51.984;5.652;2024-02-15T15:31:26;16.9;71.0
78793;SHT31;68134;51.984;5.652;2024-02-15T15:33:55;16.8;70.2
78793;SHT31;68134;51.984;5.652;2024-02-15T15:36:24;16.8;70.2
78793;SHT31;68134;51.984;5.652;2024-02-15T15:38:53;16.8;70.8
78793;SHT31;68134;51.984;5.652;2024-02-15T15:41:21;16.8;71.3
78793;SHT31;68134;51.984;5.652;2024-02-15T15:43:50;16.8;71.6
78793;SHT31;68134;51.984;5.652;2024-02-15T15:46:18;16.8;71.6
78793;SHT31;68134;51.984;5.652;2024-02-15T15:48:47;16.8;71.8
78793;SHT31;68134;51.984;5.652;2024-02-15T15:51:15;16.8;71.6
78793;SHT31;68134;51.984;5.652;2024-02-15T15:53:44;16.8;70.9
78793;SHT31;68134;51.984;5.652;2024-02-15T15:56:15;16.8;69.7
78793;SHT31;68134;51.984;5.652;2024-02-15T15:58:46;16.7;70.7
78793;SHT31;68134;51.984;5.652;2024-02-15T16:01:15;16.7;70.6
78793;SHT31;68134;51.984;5.652;2024-02-15T16:03:47;16.7;70.1
78793;SHT31;68134;51.984;5.652;2024-02-15T16:06:16;16.7;70.4
78793;SHT31;68134;51.984;5.652;2024-02-15T16:08:45;16.6;70.3
78793;SHT31;68134;51.984;5.652;2024-02-15T16:11:15;16.6;70.4
78793;SHT31;68134;51.984;5.652;2024-02-15T16:13:44;16.6;70.3
78793;SHT31;68134;51.984;5.652;2024-02-15T16:16:16;16.6;70.5
78793;SHT31;68134;51.984;5.652;2024-02-15T16:18:45;16.5;70.2
78793;SHT31;68134;51.984;5.652;2024-02-15T16:21:13;16.5;70.7
78793;SHT31;68134;51.984;5.652;2024-02-15T16:23:43;16.5;69.9
78793;SHT31;68134;51.984;5.652;2024-02-15T16:26:12;16.4;71.5